createdAt,value
2022-08-02T00:01:10.440Z,15.00
2022-08-02T00:03:40.082Z,14.97
2022-08-02T00:06:09.692Z,14.94
2022-08-02T00:08:39.393Z,14.90
2022-08-02T00:11:08.992Z,14.86
2022-08-02T00:13:41.464Z,14.81
2022-08-02T00:16:11.066Z,14.77
2022-08-02T00:18:46.957Z,14.72
2022-08-02T00:21:16.654Z,14.70
2022-08-02T00:24:28.211Z,14.67
2022-08-02T00:26:38.217Z,14.63
2022-08-02T00:29:10.369Z,14.60
2022-08-02T00:31:39.980Z,14.58
2022-08-02T00:34:28.573Z,14.56
2022-08-02T00:36:59.201Z,14.53
2022-08-02T00:39:33.973Z,14.53
2022-08-02T00:42:05.767Z,14.51
2022-08-02T00:44:38.197Z,14.51
2022-08-02T00:47:08.253Z,14.51
2022-08-02T00:49:37.889Z,14.54
2022-08-02T00:52:08.279Z,14.58
2022-08-02T00:54:38.205Z,14.61
2022-08-02T00:57:07.830Z,14.62
2022-08-02T00:59:41.993Z,14.62
2022-08-02T01:02:12.292Z,14.61
2022-08-02T01:04:42.141Z,14.61
2022-08-02T01:07:13.771Z,14.61
2022-08-02T01:09:44.637Z,14.64
2022-08-02T01:12:15.197Z,14.69
2022-08-02T01:14:51.096Z,14.71
2022-08-02T01:17:23.901Z,14.72
2022-08-02T01:19:58.321Z,14.71
2022-08-02T01:23:02.854Z,14.70
2022-08-02T01:25:55.600Z,14.67
2022-08-02T01:28:33.857Z,14.66
2022-08-02T01:31:07.201Z,14.62
2022-08-02T01:33:41.257Z,14.59
2022-08-02T01:36:11.323Z,14.55
2022-08-02T01:38:42.281Z,14.51
2022-08-02T01:41:14.484Z,14.49
2022-08-02T01:43:47.665Z,14.50
2022-08-02T01:46:18.263Z,14.49
2022-08-02T01:48:48.665Z,14.49
2022-08-02T01:51:40.900Z,14.48
2022-08-02T01:54:13.251Z,14.49
2022-08-02T01:56:43.887Z,14.48
2022-08-02T01:59:20.307Z,14.48
2022-08-02T02:01:51.272Z,14.46
2022-08-02T02:04:23.484Z,14.47
2022-08-02T02:06:53.463Z,14.46
2022-08-02T02:09:23.305Z,14.44
2022-08-02T02:12:09.852Z,14.46
2022-08-02T02:14:51.524Z,14.46
2022-08-02T02:17:52.609Z,14.45
2022-08-02T02:20:16.401Z,14.43
2022-08-02T02:22:49.768Z,14.40
2022-08-02T02:25:32.268Z,14.37
2022-08-02T02:28:10.417Z,14.33
2022-08-02T02:30:46.334Z,14.30
2022-08-02T02:33:16.816Z,14.27
2022-08-02T02:35:47.960Z,14.27
2022-08-02T02:38:20.046Z,14.25
2022-08-02T02:40:50.494Z,14.22
2022-08-02T02:43:20.318Z,14.19
2022-08-02T02:45:52.840Z,14.18
2022-08-02T02:48:22.771Z,14.14
2022-08-02T02:50:53.386Z,14.12
2022-08-02T02:53:23.761Z,14.08
2022-08-02T02:56:01.798Z,14.05
2022-08-02T02:58:33.119Z,14.03
2022-08-02T03:01:17.910Z,14.03
2022-08-02T03:03:47.764Z,14.05
2022-08-02T03:06:17.443Z,14.08
2022-08-02T03:08:47.163Z,14.08
2022-08-02T03:11:16.985Z,14.05
2022-08-02T03:13:46.949Z,14.03
2022-08-02T03:16:19.265Z,14.01
2022-08-02T03:18:48.954Z,13.98
2022-08-02T03:21:18.600Z,13.96
2022-08-02T03:23:48.331Z,13.93
2022-08-02T03:26:18.297Z,13.93
2022-08-02T03:28:47.957Z,13.92
2022-08-02T03:31:20.453Z,13.93
2022-08-02T03:33:50.166Z,13.95
2022-08-02T03:36:22.034Z,13.97
2022-08-02T03:38:53.125Z,13.98
2022-08-02T03:41:23.793Z,13.97
2022-08-02T03:43:54.071Z,13.95
2022-08-02T03:46:27.621Z,13.94
2022-08-02T03:48:58.037Z,13.94
2022-08-02T03:51:27.836Z,13.96
2022-08-02T03:53:57.824Z,13.98
2022-08-02T03:56:27.558Z,13.98
2022-08-02T03:59:08.893Z,14.01
2022-08-02T04:01:41.268Z,14.01
2022-08-02T04:04:11.275Z,14.00
2022-08-02T04:06:41.716Z,14.01
2022-08-02T04:09:11.869Z,14.04
2022-08-02T04:11:41.530Z,14.07
2022-08-02T04:14:12.884Z,14.09
2022-08-02T04:16:48.351Z,14.11
2022-08-02T04:19:21.975Z,14.14
2022-08-02T04:21:52.661Z,14.18
2022-08-02T04:24:26.630Z,14.21
2022-08-02T04:27:06.854Z,14.24
2022-08-02T04:29:49.114Z,14.29
2022-08-02T04:32:21.673Z,14.32
2022-08-02T04:35:17.681Z,14.37
2022-08-02T04:38:08.135Z,14.43
2022-08-02T04:40:31.438Z,14.48
2022-08-02T04:43:01.073Z,14.56
2022-08-02T04:45:32.502Z,14.60
2022-08-02T04:48:05.922Z,14.63
2022-08-02T04:50:36.287Z,14.70
2022-08-02T04:53:05.985Z,14.79
2022-08-02T04:55:35.672Z,14.86
2022-08-02T04:58:23.766Z,14.95
2022-08-02T05:00:55.088Z,15.01
2022-08-02T05:03:27.394Z,15.06
2022-08-02T05:05:57.147Z,15.13
2022-08-02T05:08:26.852Z,15.21
2022-08-02T05:10:56.585Z,15.30
2022-08-02T05:13:26.245Z,15.40
2022-08-02T05:15:55.921Z,15.54
2022-08-02T05:18:28.532Z,15.68
2022-08-02T05:20:58.507Z,15.84
2022-08-02T05:23:28.322Z,16.03
2022-08-02T05:25:58.002Z,16.20
2022-08-02T05:28:27.894Z,16.36
2022-08-02T05:30:57.584Z,16.50
2022-08-02T05:33:29.928Z,16.62
2022-08-02T05:35:59.621Z,16.75
2022-08-02T05:38:32.226Z,16.88
2022-08-02T05:41:07.018Z,17.02
2022-08-02T05:43:36.823Z,17.14
2022-08-02T05:46:06.457Z,17.29
2022-08-02T05:48:38.870Z,17.41
2022-08-02T05:51:10.193Z,17.56
2022-08-02T05:53:41.770Z,17.72
2022-08-02T05:56:20.123Z,17.90
2022-08-02T05:58:56.600Z,18.11
2022-08-02T06:01:31.193Z,18.30
2022-08-02T06:04:03.906Z,18.43
2022-08-02T06:06:35.369Z,18.52
2022-08-02T06:09:07.722Z,18.57
2022-08-02T06:11:40.004Z,18.63
2022-08-02T06:14:10.155Z,18.71
2022-08-02T06:16:42.482Z,18.81
2022-08-02T06:19:15.448Z,18.99
2022-08-02T06:22:37.773Z,19.16
2022-08-02T06:24:36.334Z,19.48
2022-08-02T06:27:06.270Z,19.87
2022-08-02T06:29:39.001Z,20.33
2022-08-02T06:32:12.503Z,20.95
2022-08-02T06:34:45.054Z,21.76
2022-08-02T06:37:17.853Z,22.58
2022-08-02T06:39:50.883Z,23.26
2022-08-02T06:42:28.234Z,24.03
2022-08-02T06:44:59.498Z,24.96
2022-08-02T06:47:29.260Z,25.82
2022-08-02T06:50:01.576Z,26.61
2022-08-02T06:52:32.707Z,27.22
2022-08-02T06:55:04.383Z,27.58
2022-08-02T06:57:35.354Z,27.79
2022-08-02T07:00:08.748Z,27.99
2022-08-02T07:02:39.684Z,28.22
2022-08-02T07:05:12.400Z,28.51
2022-08-02T07:07:42.087Z,28.77
2022-08-02T07:10:12.645Z,29.09
2022-08-02T07:12:42.435Z,29.33
2022-08-02T07:15:13.189Z,29.74
2022-08-02T07:17:42.940Z,30.25
2022-08-02T07:20:15.459Z,30.85
2022-08-02T07:22:45.088Z,31.29
2022-08-02T07:25:14.779Z,31.64
2022-08-02T07:27:44.426Z,32.03
2022-08-02T07:30:14.808Z,32.34
2022-08-02T07:32:44.548Z,32.92
2022-08-02T07:35:19.257Z,33.45
2022-08-02T07:37:55.113Z,33.95
2022-08-02T07:40:28.303Z,34.29
2022-08-02T07:43:03.925Z,34.66
2022-08-02T07:45:35.762Z,35.13
2022-08-02T07:48:08.501Z,35.40
2022-08-02T07:50:40.914Z,35.64
2022-08-02T07:53:10.529Z,35.91
2022-08-02T07:55:40.879Z,35.96
2022-08-02T07:58:12.533Z,36.11
2022-08-02T08:00:43.644Z,36.13
2022-08-02T08:03:13.483Z,36.37
2022-08-02T08:05:45.827Z,36.56
2022-08-02T08:08:17.735Z,36.68
2022-08-02T08:10:47.671Z,36.91
2022-08-02T08:13:17.288Z,37.15
2022-08-02T08:15:51.976Z,37.55
2022-08-02T08:18:22.592Z,37.80
2022-08-02T08:20:54.807Z,38.25
2022-08-02T08:23:24.551Z,38.43
2022-08-02T08:25:54.188Z,38.51
2022-08-02T08:28:23.782Z,38.51
2022-08-02T08:30:53.589Z,38.15
2022-08-02T08:33:23.286Z,38.01
2022-08-02T08:35:55.706Z,38.28
2022-08-02T08:38:25.344Z,38.44
2022-08-02T08:40:58.209Z,38.73
2022-08-02T08:43:27.836Z,38.97
2022-08-02T08:45:58.057Z,39.03
2022-08-02T08:48:30.850Z,39.19
2022-08-02T08:51:11.127Z,39.46
2022-08-02T08:53:43.259Z,39.50
2022-08-02T08:56:16.492Z,39.05
2022-08-02T08:58:47.893Z,39.04
2022-08-02T09:01:18.105Z,38.94
2022-08-02T09:03:48.043Z,38.69
2022-08-02T09:06:20.589Z,38.70
2022-08-02T09:08:50.220Z,38.84
2022-08-02T09:11:20.979Z,38.91
2022-08-02T09:13:55.064Z,38.71
2022-08-02T09:16:32.697Z,38.44
2022-08-02T09:19:02.801Z,38.28
2022-08-02T09:21:41.083Z,38.34
2022-08-02T09:24:20.317Z,38.73
2022-08-02T09:26:50.876Z,39.34
2022-08-02T09:29:25.535Z,39.96
2022-08-02T09:32:05.068Z,40.50
2022-08-02T09:34:47.145Z,40.82
2022-08-02T09:37:32.459Z,41.04
2022-08-02T09:40:05.108Z,41.16
2022-08-02T09:42:35.835Z,41.36
2022-08-02T09:45:06.369Z,41.53
2022-08-02T09:47:38.675Z,41.43
2022-08-02T09:50:14.633Z,40.87
2022-08-02T09:52:47.241Z,40.71
2022-08-02T09:55:16.683Z,40.89
2022-08-02T09:57:51.454Z,41.14
2022-08-02T10:00:36.975Z,40.89
2022-08-02T10:03:13.635Z,40.70
2022-08-02T10:05:55.621Z,40.62
2022-08-02T10:08:28.770Z,40.01
2022-08-02T10:11:03.665Z,39.52
2022-08-02T10:13:37.830Z,38.45
2022-08-02T10:16:09.518Z,37.84
2022-08-02T10:18:40.925Z,37.65
2022-08-02T10:21:17.347Z,37.23
2022-08-02T10:23:52.216Z,36.29
2022-08-02T10:26:23.445Z,35.40
2022-08-02T10:28:53.242Z,34.70
2022-08-02T10:31:27.007Z,34.15
2022-08-02T10:33:58.844Z,33.72
2022-08-02T10:36:29.753Z,33.37
2022-08-02T10:39:02.391Z,32.91
2022-08-02T10:41:49.275Z,32.53
2022-08-02T10:44:26.647Z,32.05
2022-08-02T10:46:56.782Z,31.77
2022-08-02T10:49:41.900Z,31.58
2022-08-02T10:52:12.287Z,31.36
2022-08-02T10:54:46.053Z,31.27
2022-08-02T10:57:21.481Z,31.29
2022-08-02T10:59:52.232Z,31.30
2022-08-02T11:02:38.155Z,31.30
2022-08-02T11:05:13.262Z,31.30
2022-08-02T11:07:47.537Z,31.33
2022-08-02T11:10:39.407Z,31.38
2022-08-02T11:13:14.075Z,31.42
2022-08-02T11:15:59.174Z,31.42
2022-08-02T11:19:06.724Z,31.39
2022-08-02T11:21:37.458Z,31.39
2022-08-02T11:24:30.018Z,31.31
2022-08-02T11:27:03.127Z,31.06
2022-08-02T11:29:38.599Z,30.86
2022-08-02T11:32:10.064Z,30.68
2022-08-02T11:34:40.065Z,30.63
2022-08-02T11:37:10.342Z,30.61
2022-08-02T11:39:40.142Z,30.61
2022-08-02T11:42:12.843Z,30.61
2022-08-02T11:44:44.772Z,30.59
2022-08-02T11:47:14.413Z,30.53
2022-08-02T11:49:44.842Z,30.48
2022-08-02T11:52:14.891Z,30.51
2022-08-02T11:54:46.012Z,30.62
2022-08-02T11:57:21.283Z,30.65
2022-08-02T11:59:52.618Z,30.62
2022-08-02T12:02:23.448Z,30.57
2022-08-02T12:04:58.350Z,30.50
2022-08-02T12:07:34.647Z,30.60
2022-08-02T12:10:05.203Z,30.69
2022-08-02T12:12:37.591Z,30.74
2022-08-02T12:15:07.771Z,30.63
2022-08-02T12:17:49.845Z,30.64
2022-08-02T12:20:20.577Z,30.74
2022-08-02T12:22:50.192Z,30.80
2022-08-02T12:25:34.781Z,30.84
2022-08-02T12:28:25.366Z,30.87
2022-08-02T12:30:58.081Z,30.89
2022-08-02T12:33:35.375Z,30.99
2022-08-02T12:36:17.964Z,31.03
2022-08-02T12:38:54.615Z,31.06
2022-08-02T12:41:31.048Z,31.04
2022-08-02T12:44:04.538Z,30.96
2022-08-02T12:46:35.532Z,30.86
2022-08-02T12:49:21.237Z,30.72
2022-08-02T12:51:56.961Z,30.69
2022-08-02T12:54:32.606Z,30.64
2022-08-02T12:57:13.405Z,30.62
2022-08-02T12:59:47.275Z,30.59
2022-08-02T13:02:18.004Z,30.58
2022-08-02T13:04:50.331Z,30.58
2022-08-02T13:07:21.161Z,30.63
2022-08-02T13:09:50.791Z,30.68
2022-08-02T13:12:30.847Z,30.69
2022-08-02T13:15:03.104Z,30.66
2022-08-02T13:17:33.280Z,30.66
2022-08-02T13:20:03.004Z,30.73
2022-08-02T13:22:34.366Z,30.81
2022-08-02T13:25:04.060Z,30.85
2022-08-02T13:27:34.218Z,30.89
2022-08-02T13:30:08.494Z,30.91
2022-08-02T13:32:38.312Z,30.83
2022-08-02T13:35:09.853Z,30.74
2022-08-02T13:37:48.233Z,30.62
2022-08-02T13:40:22.394Z,30.57
2022-08-02T13:42:52.572Z,30.50
2022-08-02T13:45:24.989Z,30.44
2022-08-02T13:48:03.488Z,30.35
2022-08-02T13:50:34.791Z,30.22
2022-08-02T13:53:04.528Z,30.10
2022-08-02T13:55:34.397Z,29.97
2022-08-02T13:58:05.728Z,29.85
2022-08-02T14:00:38.274Z,29.78
2022-08-02T14:03:11.996Z,29.72
2022-08-02T14:05:47.394Z,29.64
2022-08-02T14:08:19.244Z,29.62
2022-08-02T14:10:49.743Z,29.58
2022-08-02T14:13:19.956Z,29.56
2022-08-02T14:15:52.339Z,29.56
2022-08-02T14:18:22.173Z,29.52
2022-08-02T14:20:51.797Z,29.45
2022-08-02T14:23:50.166Z,29.43
2022-08-02T14:26:26.640Z,29.46
2022-08-02T14:28:57.447Z,29.45
2022-08-02T14:31:29.683Z,29.45
2022-08-02T14:33:59.362Z,29.45
2022-08-02T14:36:29.065Z,29.47
2022-08-02T14:38:58.796Z,29.44
2022-08-02T14:41:28.466Z,29.40
2022-08-02T14:44:08.004Z,29.37
2022-08-02T14:46:41.708Z,29.34
2022-08-02T14:49:14.802Z,29.34
2022-08-02T14:51:54.718Z,29.32
2022-08-02T14:54:28.033Z,29.26
2022-08-02T14:57:00.375Z,29.20
2022-08-02T14:59:30.147Z,29.20
2022-08-02T15:02:02.674Z,29.20
2022-08-02T15:04:43.063Z,29.18
2022-08-02T15:07:13.395Z,29.18
2022-08-02T15:09:43.109Z,29.20
2022-08-02T15:12:14.407Z,29.20
2022-08-02T15:14:45.017Z,29.18
2022-08-02T15:17:17.244Z,29.20
2022-08-02T15:19:58.036Z,29.18
2022-08-02T15:22:31.060Z,29.15
2022-08-02T15:25:01.761Z,29.12
2022-08-02T15:27:31.445Z,29.13
2022-08-02T15:30:02.666Z,29.14
2022-08-02T15:32:34.972Z,29.12
2022-08-02T15:35:04.624Z,29.09
2022-08-02T15:37:38.205Z,29.06
2022-08-02T15:40:12.340Z,29.04
2022-08-02T15:42:41.957Z,29.04
2022-08-02T15:45:13.156Z,29.04
2022-08-02T15:47:50.633Z,29.02
2022-08-02T15:50:21.044Z,29.02
2022-08-02T15:52:50.810Z,29.01
2022-08-02T15:55:20.641Z,28.97
2022-08-02T15:57:50.321Z,28.95
2022-08-02T16:00:20.580Z,28.94
2022-08-02T16:02:52.859Z,28.96
2022-08-02T16:05:22.493Z,28.95
2022-08-02T16:07:52.486Z,28.98
2022-08-02T16:10:23.158Z,28.96
2022-08-02T16:12:52.822Z,28.94
2022-08-02T16:15:22.467Z,28.93
2022-08-02T16:17:54.820Z,28.92
2022-08-02T16:20:25.831Z,28.89
2022-08-02T16:22:55.627Z,28.83
2022-08-02T16:25:25.293Z,28.80
2022-08-02T16:28:06.575Z,28.77
2022-08-02T16:30:37.262Z,28.73
2022-08-02T16:33:09.548Z,28.66
2022-08-02T16:35:39.190Z,28.62
2022-08-02T16:38:08.967Z,28.58
2022-08-02T16:40:38.643Z,28.54
2022-08-02T16:45:58.006Z,28.45
2022-08-02T16:48:30.412Z,28.43
2022-08-02T16:51:00.504Z,28.43
2022-08-02T16:53:37.137Z,28.39
2022-08-02T16:56:19.975Z,28.37
2022-08-02T16:58:49.593Z,28.37
2022-08-02T17:01:19.502Z,28.37
2022-08-02T17:03:59.885Z,28.35
2022-08-02T17:06:29.503Z,28.34
2022-08-02T17:08:59.152Z,28.32
2022-08-02T17:11:28.775Z,28.31
2022-08-02T17:13:58.482Z,28.27
2022-08-02T17:16:29.154Z,28.24
2022-08-02T17:19:01.821Z,28.20
2022-08-02T17:21:31.932Z,28.15
2022-08-02T17:24:05.710Z,28.12
2022-08-02T17:26:38.520Z,28.09
2022-08-02T17:29:15.638Z,28.05
2022-08-02T17:32:05.426Z,28.00
2022-08-02T17:34:40.077Z,27.98
2022-08-02T17:37:18.788Z,27.93
2022-08-02T17:39:52.165Z,27.88
2022-08-02T17:42:24.103Z,27.82
2022-08-02T17:45:07.117Z,27.77
2022-08-02T17:48:04.304Z,27.71
2022-08-02T17:50:38.135Z,27.64
2022-08-02T17:53:08.146Z,27.59
2022-08-02T17:55:42.327Z,27.55
2022-08-02T17:58:12.480Z,27.50
2022-08-02T18:00:45.041Z,27.45
2022-08-02T18:03:14.942Z,27.41
2022-08-02T18:05:53.468Z,27.35
2022-08-02T18:08:25.997Z,27.30
2022-08-02T18:10:56.736Z,27.25
2022-08-02T18:13:32.916Z,27.18
2022-08-02T18:16:05.567Z,27.12
2022-08-02T18:18:50.649Z,27.06
2022-08-02T18:21:23.119Z,27.00
2022-08-02T18:23:58.155Z,26.95
2022-08-02T18:26:29.711Z,26.90
2022-08-02T18:29:00.378Z,26.86
2022-08-02T18:31:39.253Z,26.80
2022-08-02T18:34:10.274Z,26.74
2022-08-02T18:36:47.328Z,26.67
2022-08-02T18:39:17.755Z,26.58
2022-08-02T18:41:47.899Z,26.51
2022-08-02T18:44:18.760Z,26.44
2022-08-02T18:46:49.415Z,26.37
2022-08-02T18:49:19.453Z,26.28
2022-08-02T18:51:51.719Z,26.20
2022-08-02T18:54:30.674Z,26.12
2022-08-02T18:57:00.838Z,26.04
2022-08-02T18:59:36.735Z,25.93
2022-08-02T19:02:07.353Z,25.86
2022-08-02T19:04:36.998Z,25.78
2022-08-02T19:07:09.227Z,25.70
2022-08-02T19:09:41.378Z,25.60
2022-08-02T19:12:12.572Z,25.51
2022-08-02T19:14:42.690Z,25.41
2022-08-02T19:17:54.405Z,25.31
2022-08-02T19:20:02.657Z,25.18
2022-08-02T19:22:35.084Z,25.09
2022-08-02T19:25:04.900Z,25.00
2022-08-02T19:27:38.864Z,24.91
2022-08-02T19:30:09.375Z,24.80
2022-08-02T19:32:39.725Z,24.68
2022-08-02T19:35:19.208Z,24.55
2022-08-02T19:38:10.409Z,24.42
2022-08-02T19:40:42.016Z,24.30
2022-08-02T19:44:21.947Z,24.17
2022-08-02T19:46:02.032Z,24.05
2022-08-02T19:48:31.694Z,23.94
2022-08-02T19:51:02.404Z,23.82
2022-08-02T19:53:48.004Z,23.71
2022-08-02T19:56:25.295Z,23.59
2022-08-02T19:58:57.839Z,23.47
2022-08-02T20:01:37.342Z,23.37
2022-08-02T20:04:13.476Z,23.26
2022-08-02T20:06:46.156Z,23.17
2022-08-02T20:09:22.215Z,23.08
2022-08-02T20:11:54.955Z,22.99
2022-08-02T20:14:27.707Z,22.94
2022-08-02T20:16:57.934Z,22.87
2022-08-02T20:19:29.755Z,22.84
2022-08-02T20:22:00.493Z,22.78
2022-08-02T20:24:33.515Z,22.73
2022-08-02T20:27:04.616Z,22.67
2022-08-02T20:29:43.198Z,22.61
2022-08-02T20:32:22.758Z,22.56
2022-08-02T20:34:53.362Z,22.51
2022-08-02T20:38:00.380Z,22.44
2022-08-02T20:40:17.079Z,22.35
2022-08-02T20:42:48.974Z,22.30
2022-08-02T20:45:18.708Z,22.27
2022-08-02T20:47:52.371Z,22.24
2022-08-02T20:50:34.820Z,22.19
2022-08-02T20:53:04.608Z,22.11
2022-08-02T20:55:43.286Z,22.05
2022-08-02T20:58:13.882Z,22.00
2022-08-02T21:00:44.505Z,21.94
2022-08-02T21:03:14.757Z,21.92
2022-08-02T21:05:54.804Z,21.90
2022-08-02T21:08:25.794Z,21.86
2022-08-02T21:10:58.262Z,21.78
2022-08-02T21:13:27.962Z,21.73
2022-08-02T21:16:08.315Z,21.67
2022-08-02T21:18:41.427Z,21.58
2022-08-02T21:21:14.709Z,21.52
2022-08-02T21:23:49.055Z,21.45
2022-08-02T21:26:28.331Z,21.43
2022-08-02T21:29:03.604Z,21.40
2022-08-02T21:31:36.469Z,21.40
2022-08-02T21:34:22.049Z,21.37
2022-08-02T21:36:58.964Z,21.32
2022-08-02T21:39:28.893Z,21.28
2022-08-02T21:42:01.886Z,21.22
2022-08-02T21:44:31.867Z,21.13
2022-08-02T21:47:01.501Z,21.07
2022-08-02T21:50:09.593Z,21.02
2022-08-02T21:52:21.236Z,20.97
2022-08-02T21:54:56.352Z,20.91
2022-08-02T21:57:34.051Z,20.87
2022-08-02T22:00:04.676Z,20.85
2022-08-02T22:02:38.523Z,20.83
2022-08-02T22:05:14.139Z,20.82
2022-08-02T22:07:45.772Z,20.79
2022-08-02T22:10:15.705Z,20.76
2022-08-02T22:12:47.932Z,20.70
2022-08-02T22:15:17.549Z,20.63
2022-08-02T22:17:59.954Z,20.57
2022-08-02T22:20:30.353Z,20.54
2022-08-02T22:23:01.920Z,20.54
2022-08-02T22:25:37.518Z,20.53
2022-08-02T22:28:38.889Z,20.52
2022-08-02T22:31:04.551Z,20.52
2022-08-02T22:34:01.151Z,20.54
2022-08-02T22:36:31.747Z,20.56
2022-08-02T22:39:02.311Z,20.55
2022-08-02T22:42:02.162Z,20.53
2022-08-02T22:44:24.538Z,20.51
2022-08-02T22:46:54.160Z,20.49
2022-08-02T22:49:36.920Z,20.50
2022-08-02T22:52:07.775Z,20.51
2022-08-02T22:54:37.478Z,20.50
2022-08-02T22:57:11.077Z,20.47
2022-08-02T22:58:34.615Z,28.50
2022-08-02T22:59:43.874Z,20.47
2022-08-02T23:02:13.625Z,20.46
2022-08-02T23:04:43.327Z,20.45
2022-08-02T23:07:12.934Z,20.46
2022-08-02T23:09:42.544Z,20.43
2022-08-02T23:12:13.265Z,20.39
2022-08-02T23:14:45.533Z,20.32
2022-08-02T23:17:36.608Z,20.23
2022-08-02T23:20:07.115Z,20.15
2022-08-02T23:22:37.022Z,20.07
2022-08-02T23:25:07.910Z,19.99
2022-08-02T23:27:37.712Z,19.91
2022-08-02T23:30:11.660Z,19.86
2022-08-02T23:32:42.062Z,19.82
2022-08-02T23:35:16.537Z,19.78
2022-08-02T23:37:58.997Z,19.74
2022-08-02T23:40:40.328Z,19.70
2022-08-02T23:43:13.432Z,19.68
2022-08-02T23:45:47.759Z,19.69
2022-08-02T23:48:17.392Z,19.68
2022-08-02T23:50:47.865Z,19.70
2022-08-02T23:53:17.520Z,19.72
2022-08-02T23:55:47.101Z,19.76
2022-08-02T23:58:16.707Z,19.79
